createdAt,value
2022-09-15T00:01:08.736Z,14.55
2022-09-15T00:03:42.569Z,14.53
2022-09-15T00:06:10.233Z,14.49
2022-09-15T00:08:37.685Z,14.44
2022-09-15T00:11:14.435Z,14.45
2022-09-15T00:13:41.633Z,14.40
2022-09-15T00:16:13.600Z,14.39
2022-09-15T00:18:44.231Z,14.38
2022-09-15T00:21:17.309Z,14.33
2022-09-15T00:23:44.517Z,14.31
2022-09-15T00:26:14.218Z,14.30
2022-09-15T00:28:41.382Z,14.30
2022-09-15T00:31:11.605Z,14.29
2022-09-15T00:33:38.710Z,14.30
2022-09-15T00:36:09.464Z,14.33
2022-09-15T00:38:37.554Z,14.34
2022-09-15T00:41:06.354Z,14.29
2022-09-15T00:43:45.210Z,14.29
2022-09-15T00:46:13.450Z,14.30
2022-09-15T00:48:48.414Z,14.33
2022-09-15T00:51:20.164Z,14.40
2022-09-15T00:53:49.045Z,14.46
2022-09-15T00:56:19.234Z,14.49
2022-09-15T00:58:55.895Z,14.51
2022-09-15T01:01:26.325Z,14.52
2022-09-15T01:03:54.666Z,14.56
2022-09-15T01:06:37.129Z,14.60
2022-09-15T01:09:12.586Z,14.63
2022-09-15T01:11:41.520Z,14.66
2022-09-15T01:14:08.632Z,14.67
2022-09-15T01:16:37.912Z,14.66
2022-09-15T01:19:42.368Z,14.64
2022-09-15T01:22:22.126Z,14.64
2022-09-15T01:25:00.894Z,14.64
2022-09-15T01:28:05.457Z,14.59
2022-09-15T01:30:37.482Z,14.55
2022-09-15T01:33:36.951Z,14.53
2022-09-15T01:36:12.585Z,14.54
2022-09-15T01:39:10.095Z,14.52
2022-09-15T01:41:51.297Z,14.49
2022-09-15T01:44:27.438Z,14.48
2022-09-15T01:46:58.097Z,14.47
2022-09-15T01:49:28.728Z,14.47
2022-09-15T01:51:55.604Z,14.47
2022-09-15T01:54:29.457Z,14.46
2022-09-15T01:56:56.675Z,14.42
2022-09-15T01:59:23.604Z,14.44
2022-09-15T02:02:06.789Z,14.43
2022-09-15T02:04:40.056Z,14.42
2022-09-15T02:07:12.374Z,14.43
2022-09-15T02:10:11.441Z,14.43
2022-09-15T02:12:47.781Z,14.45
2022-09-15T02:15:24.498Z,14.43
2022-09-15T02:17:55.487Z,14.42
2022-09-15T02:20:41.093Z,14.43
2022-09-15T02:23:16.844Z,14.46
2022-09-15T02:25:48.458Z,14.47
2022-09-15T02:28:18.934Z,14.46
2022-09-15T02:30:48.596Z,14.46
2022-09-15T02:33:20.282Z,14.44
2022-09-15T02:35:47.306Z,14.47
2022-09-15T02:38:14.715Z,14.46
2022-09-15T02:40:44.238Z,14.46
2022-09-15T02:43:14.561Z,14.44
2022-09-15T02:45:41.442Z,14.44
2022-09-15T02:48:09.244Z,14.43
2022-09-15T02:50:37.760Z,14.40
2022-09-15T02:53:04.900Z,14.39
2022-09-15T02:55:31.865Z,14.38
2022-09-15T02:57:58.953Z,14.37
2022-09-15T03:00:27.813Z,14.39
2022-09-15T03:02:55.404Z,14.38
2022-09-15T03:05:25.702Z,14.40
2022-09-15T03:07:52.964Z,14.42
2022-09-15T03:10:20.464Z,14.44
2022-09-15T03:12:49.958Z,14.45
2022-09-15T03:15:21.052Z,14.45
2022-09-15T03:17:48.307Z,14.42
2022-09-15T03:20:19.774Z,14.41
2022-09-15T03:22:47.337Z,14.39
2022-09-15T03:25:13.986Z,14.35
2022-09-15T03:27:41.958Z,14.33
2022-09-15T03:30:10.294Z,14.28
2022-09-15T03:32:37.647Z,14.27
2022-09-15T03:35:06.259Z,14.27
2022-09-15T03:37:34.110Z,14.26
2022-09-15T03:40:00.827Z,14.27
2022-09-15T03:42:27.570Z,14.26
2022-09-15T03:44:54.299Z,14.24
2022-09-15T03:47:21.233Z,14.21
2022-09-15T03:49:47.894Z,14.19
2022-09-15T03:52:14.734Z,14.17
2022-09-15T03:54:41.613Z,14.16
2022-09-15T03:57:08.180Z,14.15
2022-09-15T03:59:34.756Z,14.13
2022-09-15T04:02:01.512Z,14.11
2022-09-15T04:04:28.454Z,14.08
2022-09-15T04:06:55.005Z,14.03
2022-09-15T04:09:21.693Z,13.99
2022-09-15T04:11:48.489Z,13.96
2022-09-15T04:14:15.085Z,13.97
2022-09-15T04:16:41.814Z,13.98
2022-09-15T04:19:08.479Z,13.99
2022-09-15T04:21:35.457Z,14.00
2022-09-15T04:24:04.480Z,14.04
2022-09-15T04:26:34.766Z,14.04
2022-09-15T04:29:04.666Z,14.06
2022-09-15T04:31:33.433Z,14.08
2022-09-15T04:34:00.930Z,14.09
2022-09-15T04:36:29.189Z,14.08
2022-09-15T04:38:57.757Z,14.13
2022-09-15T04:41:26.109Z,14.15
2022-09-15T04:43:54.081Z,14.13
2022-09-15T04:46:21.444Z,14.12
2022-09-15T04:48:48.495Z,14.10
2022-09-15T04:51:18.760Z,14.12
2022-09-15T04:53:46.434Z,14.12
2022-09-15T04:56:16.618Z,14.13
2022-09-15T04:58:46.454Z,14.12
2022-09-15T05:01:21.961Z,14.09
2022-09-15T05:03:49.673Z,14.10
2022-09-15T05:06:20.523Z,14.12
2022-09-15T05:08:53.316Z,14.18
2022-09-15T05:11:20.818Z,14.24
2022-09-15T05:13:48.022Z,14.29
2022-09-15T05:16:17.826Z,14.32
2022-09-15T05:18:46.210Z,14.38
2022-09-15T05:21:15.449Z,14.44
2022-09-15T05:23:43.113Z,14.51
2022-09-15T05:26:15.693Z,14.56
2022-09-15T05:28:42.969Z,14.61
2022-09-15T05:31:17.576Z,14.64
2022-09-15T05:33:45.986Z,14.67
2022-09-15T05:36:14.646Z,14.72
2022-09-15T05:38:41.976Z,14.76
2022-09-15T05:41:12.174Z,14.82
2022-09-15T05:43:39.685Z,14.91
2022-09-15T05:46:07.357Z,15.00
2022-09-15T05:48:34.819Z,15.08
2022-09-15T05:51:02.635Z,15.18
2022-09-15T05:53:30.472Z,15.33
2022-09-15T05:55:59.075Z,15.49
2022-09-15T05:58:26.284Z,15.58
2022-09-15T06:00:53.984Z,15.60
2022-09-15T06:03:25.305Z,15.66
2022-09-15T06:06:06.313Z,15.71
2022-09-15T06:08:35.825Z,15.77
2022-09-15T06:11:08.026Z,15.85
2022-09-15T06:13:34.883Z,15.93
2022-09-15T06:16:06.255Z,16.02
2022-09-15T06:18:35.442Z,16.16
2022-09-15T06:21:04.828Z,16.22
2022-09-15T06:23:32.017Z,16.22
2022-09-15T06:26:09.183Z,16.24
2022-09-15T06:28:36.030Z,16.27
2022-09-15T06:31:03.264Z,16.42
2022-09-15T06:33:30.100Z,16.57
2022-09-15T06:36:02.085Z,16.67
2022-09-15T06:38:29.502Z,16.76
2022-09-15T06:40:57.919Z,16.89
2022-09-15T06:43:25.207Z,16.98
2022-09-15T06:45:52.137Z,17.11
2022-09-15T06:48:24.960Z,17.26
2022-09-15T06:50:54.697Z,17.47
2022-09-15T06:53:21.824Z,17.63
2022-09-15T06:55:48.903Z,17.77
2022-09-15T06:58:16.124Z,17.91
2022-09-15T07:00:42.970Z,18.09
2022-09-15T07:03:10.039Z,18.29
2022-09-15T07:05:37.425Z,18.40
2022-09-15T07:08:04.286Z,18.46
2022-09-15T07:10:31.556Z,18.49
2022-09-15T07:13:00.734Z,18.48
2022-09-15T07:15:27.871Z,18.51
2022-09-15T07:17:54.769Z,18.53
2022-09-15T07:20:22.394Z,18.66
2022-09-15T07:22:49.464Z,18.89
2022-09-15T07:25:16.532Z,19.10
2022-09-15T07:27:43.934Z,19.18
2022-09-15T07:30:11.610Z,19.23
2022-09-15T07:32:38.329Z,19.25
2022-09-15T07:35:05.633Z,19.13
2022-09-15T07:37:32.844Z,19.10
2022-09-15T07:39:59.880Z,19.11
2022-09-15T07:42:26.834Z,19.21
2022-09-15T07:44:53.579Z,19.53
2022-09-15T07:47:20.244Z,20.28
2022-09-15T07:49:46.934Z,20.90
2022-09-15T07:52:14.069Z,21.20
2022-09-15T07:54:40.961Z,21.17
2022-09-15T07:57:07.585Z,20.78
2022-09-15T07:59:37.184Z,20.38
2022-09-15T08:02:06.092Z,20.32
2022-09-15T08:04:32.824Z,20.79
2022-09-15T08:06:59.534Z,21.45
2022-09-15T08:09:26.147Z,22.05
2022-09-15T08:11:52.698Z,21.93
2022-09-15T08:14:19.262Z,22.01
2022-09-15T08:16:45.919Z,22.36
2022-09-15T08:19:12.853Z,22.44
2022-09-15T08:21:40.013Z,22.27
2022-09-15T08:24:06.570Z,22.33
2022-09-15T08:26:33.104Z,22.30
2022-09-15T08:29:00.467Z,22.31
2022-09-15T08:31:27.214Z,22.56
2022-09-15T08:33:56.688Z,23.29
2022-09-15T08:36:27.275Z,24.04
2022-09-15T08:38:53.867Z,24.24
2022-09-15T08:41:46.255Z,23.95
2022-09-15T08:44:37.969Z,23.80
2022-09-15T08:47:15.818Z,23.88
2022-09-15T08:50:07.658Z,24.34
2022-09-15T08:52:40.057Z,24.76
2022-09-15T08:55:33.990Z,24.45
2022-09-15T08:58:00.685Z,24.01
2022-09-15T09:00:29.194Z,24.04
2022-09-15T09:03:04.831Z,24.53
2022-09-15T09:06:09.039Z,25.23
2022-09-15T09:08:55.672Z,26.41
2022-09-15T09:11:31.116Z,26.72
2022-09-15T09:14:16.357Z,26.44
2022-09-15T09:17:22.837Z,26.14
2022-09-15T09:20:34.639Z,26.32
2022-09-15T09:23:05.293Z,26.71
2022-09-15T09:25:32.128Z,27.58
2022-09-15T09:28:01.656Z,27.88
2022-09-15T09:30:32.794Z,27.39
2022-09-15T09:33:34.447Z,27.44
2022-09-15T09:36:03.265Z,27.50
2022-09-15T09:38:39.407Z,27.30
2022-09-15T09:41:18.098Z,27.35
2022-09-15T09:43:48.833Z,27.99
2022-09-15T09:46:20.781Z,28.53
2022-09-15T09:48:59.239Z,29.37
2022-09-15T09:51:38.350Z,29.27
2022-09-15T09:54:35.064Z,28.17
2022-09-15T09:57:14.491Z,28.87
2022-09-15T09:59:44.469Z,28.68
2022-09-15T10:02:11.156Z,29.07
2022-09-15T10:04:39.285Z,29.98
2022-09-15T10:07:17.888Z,30.90
2022-09-15T10:10:05.408Z,30.71
2022-09-15T10:12:40.943Z,29.07
2022-09-15T10:15:31.369Z,27.19
2022-09-15T10:17:58.154Z,26.01
2022-09-15T10:20:32.180Z,25.88
2022-09-15T10:23:18.495Z,25.36
2022-09-15T10:25:58.722Z,24.49
2022-09-15T10:28:27.922Z,24.64
2022-09-15T10:31:12.971Z,24.60
2022-09-15T10:33:45.822Z,25.12
2022-09-15T10:36:13.828Z,25.25
2022-09-15T10:38:49.605Z,24.50
2022-09-15T10:41:25.380Z,24.27
2022-09-15T10:44:04.327Z,24.22
2022-09-15T10:47:06.731Z,25.00
2022-09-15T10:50:00.380Z,24.81
2022-09-15T10:52:29.017Z,24.89
2022-09-15T10:55:51.201Z,24.65
2022-09-15T10:58:38.959Z,23.66
2022-09-15T11:01:26.055Z,22.80
2022-09-15T11:04:31.077Z,22.22
2022-09-15T11:07:16.686Z,22.33
2022-09-15T11:10:06.691Z,22.61
2022-09-15T11:12:45.574Z,22.80
2022-09-15T11:15:40.290Z,22.48
2022-09-15T11:18:28.366Z,22.24
2022-09-15T11:21:05.734Z,22.30
2022-09-15T11:24:10.735Z,22.03
2022-09-15T11:26:45.530Z,21.81
2022-09-15T11:29:22.944Z,21.66
2022-09-15T11:31:58.278Z,21.58
2022-09-15T11:34:33.144Z,21.40
2022-09-15T11:37:23.804Z,21.29
2022-09-15T11:39:57.559Z,21.89
2022-09-15T11:42:38.807Z,22.54
2022-09-15T11:45:17.079Z,22.68
2022-09-15T11:47:49.778Z,22.30
2022-09-15T11:50:30.015Z,22.46
2022-09-15T11:52:56.825Z,22.68
2022-09-15T11:55:37.768Z,22.35
2022-09-15T11:58:22.135Z,22.01
2022-09-15T12:01:18.795Z,21.93
2022-09-15T12:04:04.579Z,21.92
2022-09-15T12:07:01.352Z,21.80
2022-09-15T12:09:28.857Z,21.87
2022-09-15T12:12:07.178Z,21.64
2022-09-15T12:14:42.198Z,21.50
2022-09-15T12:17:18.759Z,21.60
2022-09-15T12:20:16.928Z,21.81
2022-09-15T12:23:08.123Z,21.78
2022-09-15T12:25:59.075Z,21.56
2022-09-15T12:28:37.782Z,21.59
2022-09-15T12:31:25.980Z,21.68
2022-09-15T12:33:59.965Z,21.74
2022-09-15T12:36:43.931Z,21.90
2022-09-15T12:39:32.064Z,21.93
2022-09-15T12:42:25.231Z,21.81
2022-09-15T12:44:54.117Z,21.90
2022-09-15T12:47:35.452Z,22.46
2022-09-15T12:50:14.100Z,23.05
2022-09-15T12:53:00.905Z,22.87
2022-09-15T12:55:36.263Z,22.03
2022-09-15T12:58:17.833Z,21.53
2022-09-15T13:01:07.136Z,21.19
2022-09-15T13:06:10.304Z,21.04
2022-09-15T13:08:37.344Z,21.01
2022-09-15T13:11:09.041Z,20.93
2022-09-15T13:13:43.291Z,21.00
2022-09-15T13:16:40.732Z,21.40
2022-09-15T13:19:30.345Z,21.86
2022-09-15T13:22:12.586Z,21.79
2022-09-15T13:25:03.229Z,21.42
2022-09-15T13:27:35.784Z,21.18
2022-09-15T13:30:22.061Z,20.94
2022-09-15T13:33:22.365Z,20.73
2022-09-15T13:35:51.803Z,20.65
2022-09-15T13:38:37.479Z,20.80
2022-09-15T13:41:32.409Z,21.04
2022-09-15T13:44:36.174Z,21.28
2022-09-15T13:47:18.945Z,21.35
2022-09-15T13:49:51.536Z,21.27
2022-09-15T13:52:18.014Z,21.04
2022-09-15T13:55:21.029Z,21.01
2022-09-15T14:00:51.174Z,20.84
2022-09-15T14:03:25.317Z,20.98
2022-09-15T14:05:54.037Z,20.95
2022-09-15T14:08:26.551Z,20.76
2022-09-15T14:11:01.462Z,20.63
2022-09-15T14:13:30.084Z,20.60
2022-09-15T14:16:10.427Z,20.49
2022-09-15T14:18:43.890Z,20.51
2022-09-15T14:21:17.525Z,20.66
2022-09-15T14:23:52.870Z,20.98
2022-09-15T14:26:30.213Z,21.22
2022-09-15T14:29:02.791Z,21.41
2022-09-15T14:31:38.556Z,21.23
2022-09-15T14:34:14.773Z,20.90
2022-09-15T14:36:41.708Z,20.53
2022-09-15T14:39:11.137Z,20.41
2022-09-15T14:41:39.637Z,20.15
2022-09-15T14:47:22.396Z,20.18
2022-09-15T14:49:49.267Z,20.33
2022-09-15T14:52:26.729Z,20.52
2022-09-15T14:55:07.558Z,20.71
2022-09-15T14:57:37.993Z,21.19
2022-09-15T15:00:18.651Z,21.96
2022-09-15T15:03:17.522Z,24.18
2022-09-15T15:06:02.332Z,26.22
2022-09-15T15:08:34.908Z,27.36
2022-09-15T15:11:02.026Z,28.26
2022-09-15T15:13:29.358Z,29.30
2022-09-15T15:15:56.170Z,28.51
2022-09-15T15:18:31.702Z,27.81
2022-09-15T15:20:59.817Z,27.26
2022-09-15T15:23:27.366Z,26.84
2022-09-15T15:26:43.249Z,25.49
2022-09-15T15:29:47.705Z,24.29
2022-09-15T15:32:17.346Z,24.37
2022-09-15T15:35:02.640Z,23.74
2022-09-15T15:37:31.711Z,22.57
2022-09-15T15:40:04.768Z,21.53
2022-09-15T15:42:31.794Z,21.04
2022-09-15T15:45:17.004Z,20.75
2022-09-15T15:47:43.634Z,20.27
2022-09-15T15:50:20.290Z,20.08
2022-09-15T15:52:48.734Z,19.85
2022-09-15T15:55:18.803Z,19.72
2022-09-15T15:57:52.796Z,19.64
2022-09-15T16:00:23.795Z,19.53
2022-09-15T16:02:51.734Z,19.40
2022-09-15T16:05:26.159Z,19.37
2022-09-15T16:07:56.547Z,19.82
2022-09-15T16:10:27.557Z,19.96
2022-09-15T16:12:54.365Z,19.65
2022-09-15T16:15:22.174Z,19.35
2022-09-15T16:17:49.345Z,19.19
2022-09-15T16:20:16.721Z,19.11
2022-09-15T16:22:43.671Z,19.04
2022-09-15T16:25:20.764Z,18.88
2022-09-15T16:27:47.636Z,18.77
2022-09-15T16:30:14.255Z,18.69
2022-09-15T16:32:40.848Z,18.66
2022-09-15T16:35:51.396Z,18.58
2022-09-15T16:38:19.808Z,18.54
2022-09-15T16:40:47.633Z,18.54
2022-09-15T16:43:19.057Z,18.47
2022-09-15T16:45:46.192Z,18.48
2022-09-15T16:48:13.215Z,18.40
2022-09-15T16:50:50.309Z,18.32
2022-09-15T16:53:30.532Z,18.21
2022-09-15T16:55:58.057Z,18.11
2022-09-15T16:58:27.697Z,18.06
2022-09-15T17:01:24.378Z,18.01
2022-09-15T17:03:51.434Z,17.88
2022-09-15T17:06:21.641Z,17.84
2022-09-15T17:08:48.846Z,17.78
2022-09-15T17:11:18.353Z,17.76
2022-09-15T17:13:46.335Z,17.69
2022-09-15T17:16:16.994Z,17.63
2022-09-15T17:18:43.682Z,17.62
2022-09-15T17:21:15.778Z,17.56
2022-09-15T17:23:47.974Z,17.51
2022-09-15T17:26:19.618Z,17.52
2022-09-15T17:28:47.067Z,17.47
2022-09-15T17:31:19.894Z,17.48
2022-09-15T17:33:48.626Z,17.42
2022-09-15T17:36:16.086Z,17.36
2022-09-15T17:38:44.903Z,17.33
2022-09-15T17:41:18.449Z,17.29
2022-09-15T17:43:46.754Z,17.27
2022-09-15T17:46:13.486Z,17.23
2022-09-15T17:48:40.261Z,17.21
2022-09-15T17:51:09.981Z,17.18
2022-09-15T17:53:36.624Z,17.12
2022-09-15T17:56:03.437Z,17.08
2022-09-15T17:58:32.001Z,17.05
2022-09-15T18:00:58.987Z,17.00
2022-09-15T18:03:34.102Z,16.94
2022-09-15T18:06:19.275Z,16.91
2022-09-15T18:08:58.759Z,16.86
2022-09-15T18:11:40.874Z,16.81
2022-09-15T18:14:26.216Z,16.73
2022-09-15T18:16:52.994Z,16.69
2022-09-15T18:19:39.876Z,16.65
2022-09-15T18:22:06.594Z,16.63
2022-09-15T18:24:41.998Z,16.62
2022-09-15T18:27:27.095Z,16.58
2022-09-15T18:29:59.930Z,16.54
2022-09-15T18:32:42.725Z,16.56
2022-09-15T18:35:28.385Z,16.52
2022-09-15T18:37:58.113Z,16.48
2022-09-15T18:40:48.829Z,16.47
2022-09-15T18:43:35.281Z,16.47
2022-09-15T18:46:02.343Z,16.48
2022-09-15T18:48:44.358Z,16.44
2022-09-15T18:51:50.440Z,16.41
2022-09-15T18:54:16.296Z,16.45
2022-09-15T18:56:45.837Z,16.46
2022-09-15T18:59:31.484Z,16.48
2022-09-15T19:01:58.373Z,16.48
2022-09-15T19:04:31.024Z,16.45
2022-09-15T19:06:59.075Z,16.43
2022-09-15T19:09:25.668Z,16.45
2022-09-15T19:11:52.284Z,16.49
2022-09-15T19:14:19.094Z,16.54
2022-09-15T19:16:57.657Z,16.58
2022-09-15T19:19:25.165Z,16.61
2022-09-15T19:21:52.019Z,16.62
2022-09-15T19:24:18.895Z,16.60
2022-09-15T19:26:47.244Z,16.58
2022-09-15T19:29:15.195Z,16.61
2022-09-15T19:31:42.332Z,16.70
2022-09-15T19:34:09.056Z,16.70
2022-09-15T19:36:35.974Z,16.69
2022-09-15T19:39:03.414Z,16.67
2022-09-15T19:41:30.473Z,16.70
2022-09-15T19:43:59.756Z,16.72
2022-09-15T19:46:26.607Z,16.75
2022-09-15T19:48:53.846Z,16.73
2022-09-15T19:51:21.623Z,16.71
2022-09-15T19:53:48.367Z,16.72
2022-09-15T19:56:22.007Z,16.73
2022-09-15T19:58:49.484Z,16.77
2022-09-15T20:01:17.710Z,16.76
2022-09-15T20:06:32.640Z,16.80
2022-09-15T20:09:00.136Z,16.78
2022-09-15T20:11:29.651Z,16.74
2022-09-15T20:13:57.369Z,16.75
2022-09-15T20:16:25.299Z,16.76
2022-09-15T20:18:54.270Z,16.77
2022-09-15T20:21:46.279Z,16.82
2022-09-15T20:24:15.247Z,16.82
2022-09-15T20:26:41.933Z,16.83
2022-09-15T20:29:10.369Z,16.75
2022-09-15T20:31:37.096Z,16.76
2022-09-15T20:34:03.761Z,16.74
2022-09-15T20:36:35.444Z,16.62
2022-09-15T20:39:06.019Z,16.62
2022-09-15T20:41:32.982Z,16.55
2022-09-15T20:43:59.976Z,16.45
2022-09-15T20:46:28.906Z,16.43
2022-09-15T20:48:55.538Z,16.34
2022-09-15T20:51:25.744Z,16.27
2022-09-15T20:53:54.342Z,16.25
2022-09-15T20:56:24.938Z,16.20
2022-09-15T20:58:56.435Z,16.18
2022-09-15T21:01:38.074Z,16.09
2022-09-15T21:04:08.722Z,16.03
2022-09-15T21:06:36.542Z,15.98
2022-09-15T21:09:04.214Z,15.92
2022-09-15T21:11:31.154Z,15.82
2022-09-15T21:13:58.377Z,15.75
2022-09-15T21:16:27.569Z,15.68
2022-09-15T21:18:58.054Z,15.64
2022-09-15T21:21:29.496Z,15.55
2022-09-15T21:24:00.564Z,15.50
2022-09-15T21:26:30.938Z,15.44
2022-09-15T21:28:57.905Z,15.38
2022-09-15T21:31:27.723Z,15.35
2022-09-15T21:33:55.401Z,15.33
2022-09-15T21:36:27.596Z,15.32
2022-09-15T21:38:56.419Z,15.22
2022-09-15T21:41:25.813Z,15.15
2022-09-15T21:43:54.966Z,15.10
2022-09-15T21:46:24.284Z,15.04
2022-09-15T21:48:51.235Z,14.94
2022-09-15T21:51:24.615Z,14.95
2022-09-15T21:53:56.161Z,14.87
2022-09-15T21:56:24.444Z,14.79
2022-09-15T21:58:51.376Z,14.77
2022-09-15T22:01:21.544Z,14.71
2022-09-15T22:04:00.725Z,14.68
2022-09-15T22:06:31.347Z,14.61
2022-09-15T22:08:59.614Z,14.57
2022-09-15T22:11:26.465Z,14.54
2022-09-15T22:13:53.377Z,14.53
2022-09-15T22:16:22.357Z,14.49
2022-09-15T22:18:49.944Z,14.37
2022-09-15T22:21:22.540Z,14.36
2022-09-15T22:23:50.623Z,14.29
2022-09-15T22:26:19.866Z,14.28
2022-09-15T22:28:46.691Z,14.19
2022-09-15T22:31:16.243Z,14.10
2022-09-15T22:33:43.144Z,14.02
2022-09-15T22:36:30.687Z,13.96
2022-09-15T22:39:06.332Z,13.94
2022-09-15T22:41:37.707Z,13.89
2022-09-15T22:44:06.488Z,13.84
2022-09-15T22:46:33.832Z,13.78
2022-09-15T22:49:00.418Z,13.73
2022-09-15T22:51:27.139Z,13.70
2022-09-15T22:53:56.149Z,13.68
2022-09-15T22:56:25.188Z,13.61
2022-09-15T22:58:51.923Z,13.55
2022-09-15T23:01:21.181Z,13.51
2022-09-15T23:03:55.699Z,13.48
2022-09-15T23:06:24.045Z,13.43
2022-09-15T23:08:52.893Z,13.39
2022-09-15T23:11:20.498Z,13.36
2022-09-15T23:13:47.590Z,13.36
2022-09-15T23:16:14.283Z,13.33
2022-09-15T23:18:41.218Z,13.35
2022-09-15T23:21:10.153Z,13.40
2022-09-15T23:23:38.867Z,13.42
2022-09-15T23:26:08.226Z,13.38
2022-09-15T23:28:35.878Z,13.34
2022-09-15T23:31:02.570Z,13.34
2022-09-15T23:33:31.596Z,13.35
2022-09-15T23:36:00.969Z,13.33
2022-09-15T23:38:27.868Z,13.35
2022-09-15T23:40:54.425Z,13.35
2022-09-15T23:43:21.711Z,13.35
2022-09-15T23:45:50.594Z,13.30
2022-09-15T23:48:17.347Z,13.27
2022-09-15T23:50:44.984Z,13.22
2022-09-15T23:53:12.806Z,13.19
2022-09-15T23:55:39.435Z,13.15
2022-09-15T23:58:06.161Z,13.17
